createdAt,value
2022-12-07T00:00:36.205Z,0.00
2022-12-07T00:01:36.136Z,0.00
2022-12-07T00:02:36.220Z,0.00
2022-12-07T00:03:36.215Z,0.00
2022-12-07T00:04:36.155Z,0.00
2022-12-07T00:05:36.128Z,0.00
2022-12-07T00:06:36.155Z,0.00
2022-12-07T00:07:36.188Z,0.00
2022-12-07T00:08:36.131Z,0.00
2022-12-07T00:09:37.098Z,0.00
2022-12-07T00:10:36.171Z,0.00
2022-12-07T00:11:36.058Z,0.00
2022-12-07T00:12:36.069Z,0.00
2022-12-07T00:13:36.016Z,0.00
2022-12-07T00:14:36.043Z,0.00
2022-12-07T00:15:36.055Z,0.00
2022-12-07T00:16:36.050Z,0.00
2022-12-07T00:17:35.966Z,0.00
2022-12-07T00:18:36.820Z,0.00
2022-12-07T00:19:36.010Z,0.00
2022-12-07T00:20:36.043Z,0.00
2022-12-07T00:21:35.996Z,0.00
2022-12-07T00:22:35.974Z,0.00
2022-12-07T00:23:36.012Z,0.00
2022-12-07T00:24:35.919Z,0.00
2022-12-07T00:25:36.077Z,0.00
2022-12-07T00:26:36.164Z,0.00
2022-12-07T00:27:35.930Z,0.00
2022-12-07T00:28:35.908Z,0.00
2022-12-07T00:29:35.876Z,0.00
2022-12-07T00:30:35.916Z,0.00
2022-12-07T00:31:36.081Z,0.00
2022-12-07T00:32:35.917Z,0.00
2022-12-07T00:33:35.875Z,0.00
2022-12-07T00:34:35.884Z,0.00
2022-12-07T00:35:35.882Z,0.00
2022-12-07T00:36:35.825Z,0.00
2022-12-07T00:37:36.067Z,0.00
2022-12-07T00:38:35.832Z,0.00
2022-12-07T00:39:35.836Z,0.00
2022-12-07T00:40:35.780Z,0.00
2022-12-07T00:41:35.821Z,0.00
2022-12-07T00:42:35.838Z,0.00
2022-12-07T00:43:35.773Z,0.00
2022-12-07T00:44:35.710Z,0.00
2022-12-07T00:45:35.795Z,0.00
2022-12-07T00:46:36.582Z,0.00
2022-12-07T00:47:35.727Z,0.00
2022-12-07T00:48:35.729Z,0.00
2022-12-07T00:49:35.682Z,0.00
2022-12-07T00:50:35.642Z,0.00
2022-12-07T00:51:35.756Z,0.00
2022-12-07T00:52:35.693Z,0.00
2022-12-07T00:53:41.022Z,0.00
2022-12-07T00:54:35.641Z,0.00
2022-12-07T00:55:35.613Z,0.00
2022-12-07T00:56:35.592Z,0.00
2022-12-07T00:57:35.535Z,0.00
2022-12-07T00:58:35.703Z,0.00
2022-12-07T00:59:35.606Z,0.00
2022-12-07T01:00:35.606Z,0.00
2022-12-07T01:01:35.552Z,0.00
2022-12-07T01:02:35.528Z,0.00
2022-12-07T01:03:35.564Z,0.00
2022-12-07T01:04:35.535Z,0.00
2022-12-07T01:05:35.540Z,0.00
2022-12-07T01:06:35.546Z,0.00
2022-12-07T01:07:36.263Z,0.00
2022-12-07T01:08:35.486Z,0.00
2022-12-07T01:09:35.486Z,0.00
2022-12-07T01:10:36.653Z,0.00
2022-12-07T01:11:35.444Z,0.00
2022-12-07T01:12:35.404Z,0.00
2022-12-07T01:13:35.599Z,0.00
2022-12-07T01:14:35.358Z,0.00
2022-12-07T01:15:35.376Z,0.00
2022-12-07T01:16:35.463Z,0.00
2022-12-07T01:17:35.433Z,0.00
2022-12-07T01:18:35.441Z,0.00
2022-12-07T01:19:35.351Z,0.00
2022-12-07T01:20:35.363Z,0.00
2022-12-07T01:21:35.363Z,0.00
2022-12-07T01:22:35.378Z,0.00
2022-12-07T01:23:35.389Z,0.00
2022-12-07T01:24:35.275Z,0.00
2022-12-07T01:25:35.383Z,0.00
2022-12-07T01:26:35.289Z,0.00
2022-12-07T01:27:35.295Z,0.00
2022-12-07T01:28:35.304Z,0.00
2022-12-07T01:29:35.306Z,0.00
2022-12-07T01:30:35.379Z,0.00
2022-12-07T01:31:35.185Z,0.00
2022-12-07T01:32:35.229Z,0.00
2022-12-07T01:33:35.239Z,0.00
2022-12-07T01:34:35.754Z,0.00
2022-12-07T01:35:35.250Z,0.00
2022-12-07T01:36:35.149Z,0.00
2022-12-07T01:37:35.404Z,0.00
2022-12-07T01:38:35.169Z,0.00
2022-12-07T01:39:35.404Z,0.00
2022-12-07T01:40:35.146Z,0.00
2022-12-07T01:41:35.907Z,0.00
2022-12-07T01:42:35.219Z,0.00
2022-12-07T01:43:35.092Z,0.00
2022-12-07T01:44:35.097Z,0.00
2022-12-07T01:45:35.084Z,0.00
2022-12-07T01:46:35.221Z,0.00
2022-12-07T01:47:35.152Z,0.00
2022-12-07T01:48:35.063Z,0.00
2022-12-07T01:49:35.074Z,0.00
2022-12-07T01:50:35.043Z,0.00
2022-12-07T01:51:35.022Z,0.00
2022-12-07T01:52:34.990Z,0.00
2022-12-07T01:53:34.990Z,0.00
2022-12-07T01:54:34.941Z,0.00
2022-12-07T01:55:34.994Z,0.00
2022-12-07T01:56:34.902Z,0.00
2022-12-07T01:57:34.907Z,0.00
2022-12-07T01:58:34.919Z,0.00
2022-12-07T01:59:34.919Z,0.00
2022-12-07T02:00:34.879Z,0.00
2022-12-07T02:01:34.937Z,0.00
2022-12-07T02:02:34.939Z,0.00
2022-12-07T02:03:34.869Z,0.00
2022-12-07T02:04:34.848Z,0.00
2022-12-07T02:05:34.860Z,0.00
2022-12-07T02:06:34.823Z,0.00
2022-12-07T02:07:34.870Z,0.00
2022-12-07T02:08:34.788Z,0.00
2022-12-07T02:09:34.792Z,0.00
2022-12-07T02:10:34.747Z,0.00
2022-12-07T02:11:34.756Z,0.00
2022-12-07T02:12:34.756Z,0.00
2022-12-07T02:13:34.778Z,0.00
2022-12-07T02:14:34.732Z,0.00
2022-12-07T02:15:34.791Z,0.00
2022-12-07T02:16:34.697Z,0.00
2022-12-07T02:17:34.695Z,0.00
2022-12-07T02:18:34.702Z,0.00
2022-12-07T02:19:34.648Z,0.00
2022-12-07T02:20:34.672Z,0.00
2022-12-07T02:21:34.658Z,0.00
2022-12-07T02:22:34.630Z,0.00
2022-12-07T02:23:34.662Z,0.00
2022-12-07T02:24:34.604Z,0.00
2022-12-07T02:25:34.642Z,0.00
2022-12-07T02:26:34.646Z,0.00
2022-12-07T02:27:34.585Z,0.00
2022-12-07T02:28:34.597Z,0.00
2022-12-07T02:29:34.598Z,0.00
2022-12-07T02:30:34.606Z,0.00
2022-12-07T02:31:34.662Z,0.00
2022-12-07T02:32:34.566Z,0.00
2022-12-07T02:33:34.524Z,0.00
2022-12-07T02:34:34.539Z,0.00
2022-12-07T02:35:34.507Z,0.00
2022-12-07T02:36:34.515Z,0.00
2022-12-07T02:37:34.519Z,0.00
2022-12-07T02:38:34.451Z,0.00
2022-12-07T02:39:34.458Z,0.00
2022-12-07T02:40:34.471Z,0.00
2022-12-07T02:41:34.470Z,0.00
2022-12-07T02:42:34.427Z,0.00
2022-12-07T02:43:34.536Z,0.00
2022-12-07T02:44:34.437Z,0.00
2022-12-07T02:45:34.497Z,0.00
2022-12-07T02:46:34.442Z,0.00
2022-12-07T02:47:34.464Z,0.00
2022-12-07T02:48:34.477Z,0.00
2022-12-07T02:49:34.423Z,0.00
2022-12-07T02:50:34.439Z,0.00
2022-12-07T02:51:34.341Z,0.00
2022-12-07T02:52:34.291Z,0.00
2022-12-07T02:53:34.369Z,0.00
2022-12-07T02:54:34.304Z,0.00
2022-12-07T02:55:34.308Z,0.00
2022-12-07T02:56:34.290Z,0.00
2022-12-07T02:57:34.230Z,0.00
2022-12-07T02:58:34.282Z,0.00
2022-12-07T02:59:34.293Z,0.00
2022-12-07T03:00:34.240Z,0.00
2022-12-07T03:01:34.295Z,0.00
2022-12-07T03:02:34.257Z,0.00
2022-12-07T03:03:34.170Z,0.00
2022-12-07T03:04:34.174Z,0.00
2022-12-07T03:05:34.232Z,0.00
2022-12-07T03:06:34.174Z,0.00
2022-12-07T03:07:34.189Z,0.00
2022-12-07T03:08:34.121Z,0.00
2022-12-07T03:09:34.102Z,0.00
2022-12-07T03:10:34.145Z,0.00
2022-12-07T03:11:34.113Z,0.00
2022-12-07T03:12:34.083Z,0.00
2022-12-07T03:13:34.052Z,0.00
2022-12-07T03:14:34.027Z,0.00
2022-12-07T03:15:34.068Z,0.00
2022-12-07T03:16:34.035Z,0.00
2022-12-07T03:17:34.084Z,0.00
2022-12-07T03:18:34.050Z,0.00
2022-12-07T03:19:34.023Z,0.00
2022-12-07T03:20:33.969Z,0.00
2022-12-07T03:21:33.968Z,0.00
2022-12-07T03:22:34.018Z,0.00
2022-12-07T03:23:34.047Z,0.00
2022-12-07T03:24:33.958Z,0.00
2022-12-07T03:25:33.951Z,0.00
2022-12-07T03:26:33.941Z,0.00
2022-12-07T03:27:33.946Z,0.00
2022-12-07T03:28:33.920Z,0.00
2022-12-07T03:29:34.298Z,0.00
2022-12-07T03:30:33.892Z,0.00
2022-12-07T03:31:33.957Z,0.00
2022-12-07T03:32:33.878Z,0.00
2022-12-07T03:33:33.844Z,0.00
2022-12-07T03:34:33.912Z,0.00
2022-12-07T03:35:33.881Z,0.00
2022-12-07T03:36:33.848Z,0.00
2022-12-07T03:37:33.833Z,0.00
2022-12-07T03:38:33.847Z,0.00
2022-12-07T03:39:33.805Z,0.00
2022-12-07T03:40:33.849Z,0.00
2022-12-07T03:41:33.865Z,0.00
2022-12-07T03:42:33.763Z,0.00
2022-12-07T03:43:33.766Z,0.00
2022-12-07T03:44:33.737Z,0.00
2022-12-07T03:45:33.741Z,0.00
2022-12-07T03:46:33.942Z,0.00
2022-12-07T03:47:33.760Z,0.00
2022-12-07T03:48:33.707Z,0.00
2022-12-07T03:49:33.667Z,0.00
2022-12-07T03:50:33.651Z,0.00
2022-12-07T03:51:33.685Z,0.00
2022-12-07T03:52:33.687Z,0.00
2022-12-07T03:53:33.698Z,0.00
2022-12-07T03:54:33.646Z,0.00
2022-12-07T03:55:33.605Z,0.00
2022-12-07T03:56:33.623Z,0.00
2022-12-07T03:57:33.621Z,0.00
2022-12-07T03:58:33.628Z,0.00
2022-12-07T03:59:33.637Z,0.00
2022-12-07T04:00:33.539Z,0.00
2022-12-07T04:01:33.583Z,0.00
2022-12-07T04:02:33.653Z,0.00
2022-12-07T04:03:33.536Z,0.00
2022-12-07T04:04:33.604Z,0.00
2022-12-07T04:05:33.573Z,0.00
2022-12-07T04:06:33.517Z,0.00
2022-12-07T04:07:33.595Z,0.00
2022-12-07T04:08:33.468Z,0.00
2022-12-07T04:09:33.500Z,0.00
2022-12-07T04:10:33.505Z,0.00
2022-12-07T04:11:33.486Z,0.00
2022-12-07T04:12:33.385Z,0.00
2022-12-07T04:13:34.026Z,0.00
2022-12-07T04:14:33.424Z,0.00
2022-12-07T04:15:33.364Z,0.00
2022-12-07T04:16:33.408Z,0.00
2022-12-07T04:17:33.380Z,0.00
2022-12-07T04:18:33.342Z,0.00
2022-12-07T04:19:33.353Z,0.00
2022-12-07T04:20:33.963Z,0.00
2022-12-07T04:21:33.309Z,0.00
2022-12-07T04:22:33.317Z,0.00
2022-12-07T04:23:33.727Z,0.00
2022-12-07T04:24:33.272Z,0.00
2022-12-07T04:25:33.288Z,0.00
2022-12-07T04:26:33.285Z,0.00
2022-12-07T04:27:33.248Z,0.00
2022-12-07T04:28:33.269Z,0.00
2022-12-07T04:29:33.262Z,0.00
2022-12-07T04:30:33.209Z,0.00
2022-12-07T04:31:33.297Z,0.00
2022-12-07T04:32:33.234Z,0.00
2022-12-07T04:33:33.167Z,0.00
2022-12-07T04:34:33.176Z,0.00
2022-12-07T04:35:33.204Z,0.00
2022-12-07T04:36:33.172Z,0.00
2022-12-07T04:37:33.156Z,0.00
2022-12-07T04:38:33.191Z,0.00
2022-12-07T04:39:33.132Z,0.00
2022-12-07T04:40:33.132Z,0.00
2022-12-07T04:41:33.141Z,0.00
2022-12-07T04:42:33.095Z,0.00
2022-12-07T04:43:33.116Z,0.00
2022-12-07T04:44:33.062Z,0.00
2022-12-07T04:45:33.070Z,0.00
2022-12-07T04:46:33.152Z,0.00
2022-12-07T04:47:33.066Z,0.00
2022-12-07T04:48:33.045Z,0.00
2022-12-07T04:49:33.039Z,0.00
2022-12-07T04:50:33.002Z,0.00
2022-12-07T04:51:32.972Z,0.00
2022-12-07T04:52:32.978Z,0.00
2022-12-07T04:53:33.023Z,0.00
2022-12-07T04:54:32.989Z,0.00
2022-12-07T04:55:32.937Z,0.00
2022-12-07T04:56:32.936Z,0.00
2022-12-07T04:57:32.914Z,0.00
2022-12-07T04:58:32.920Z,0.00
2022-12-07T04:59:33.744Z,0.00
2022-12-07T05:00:32.981Z,0.00
2022-12-07T05:01:32.907Z,0.00
2022-12-07T05:02:32.905Z,0.00
2022-12-07T05:03:32.854Z,0.00
2022-12-07T05:04:32.853Z,0.00
2022-12-07T05:05:33.270Z,0.00
2022-12-07T05:06:32.875Z,0.00
2022-12-07T05:07:32.890Z,0.00
2022-12-07T05:08:32.835Z,0.00
2022-12-07T05:09:32.805Z,0.00
2022-12-07T05:10:32.848Z,0.00
2022-12-07T05:11:33.741Z,0.00
2022-12-07T05:12:32.921Z,0.00
2022-12-07T05:13:32.828Z,0.00
2022-12-07T05:14:32.735Z,0.00
2022-12-07T05:15:32.739Z,0.00
2022-12-07T05:16:32.807Z,0.00
2022-12-07T05:17:32.756Z,0.00
2022-12-07T05:18:32.705Z,0.00
2022-12-07T05:19:32.759Z,0.00
2022-12-07T05:20:35.437Z,0.00
2022-12-07T05:21:32.675Z,0.00
2022-12-07T05:22:32.720Z,0.00
2022-12-07T05:23:32.684Z,0.00
2022-12-07T05:24:32.740Z,0.00
2022-12-07T05:25:32.697Z,0.00
2022-12-07T05:26:32.645Z,0.00
2022-12-07T05:27:32.608Z,0.00
2022-12-07T05:28:32.655Z,0.00
2022-12-07T05:29:32.662Z,0.00
2022-12-07T05:30:32.675Z,0.00
2022-12-07T05:31:32.741Z,0.00
2022-12-07T05:32:32.579Z,0.00
2022-12-07T05:33:32.589Z,0.00
2022-12-07T05:34:32.596Z,0.00
2022-12-07T05:35:34.353Z,0.00
2022-12-07T05:36:32.619Z,0.00
2022-12-07T05:37:32.526Z,0.00
2022-12-07T05:38:32.488Z,0.00
2022-12-07T05:39:32.486Z,0.00
2022-12-07T05:40:32.492Z,0.00
2022-12-07T05:41:32.495Z,0.00
2022-12-07T05:42:32.449Z,0.00
2022-12-07T05:43:32.410Z,0.00
2022-12-07T05:44:32.461Z,0.00
2022-12-07T05:45:32.483Z,0.00
2022-12-07T05:46:32.423Z,0.00
2022-12-07T05:47:32.432Z,0.00
2022-12-07T05:48:32.391Z,0.00
2022-12-07T05:49:32.346Z,0.00
2022-12-07T05:50:32.347Z,0.00
2022-12-07T05:51:32.356Z,0.00
2022-12-07T05:52:32.371Z,0.00
2022-12-07T05:53:32.378Z,0.00
2022-12-07T05:54:32.330Z,0.00
2022-12-07T05:55:32.437Z,0.00
2022-12-07T05:56:32.385Z,0.00
2022-12-07T05:57:32.352Z,0.00
2022-12-07T05:58:32.351Z,0.00
2022-12-07T05:59:32.359Z,0.00
2022-12-07T06:00:32.265Z,0.00
2022-12-07T06:01:32.326Z,0.00
2022-12-07T06:02:32.365Z,0.00
2022-12-07T06:03:32.416Z,0.00
2022-12-07T06:04:32.243Z,0.00
2022-12-07T06:05:32.345Z,0.00
2022-12-07T06:06:32.307Z,0.00
2022-12-07T06:07:32.208Z,0.00
2022-12-07T06:08:32.240Z,0.00
2022-12-07T06:09:32.145Z,0.00
2022-12-07T06:10:32.208Z,0.00
2022-12-07T06:11:32.162Z,0.00
2022-12-07T06:12:32.165Z,0.00
2022-12-07T06:13:32.127Z,0.00
2022-12-07T06:14:32.131Z,0.00
2022-12-07T06:15:32.095Z,0.00
2022-12-07T06:16:32.254Z,0.00
2022-12-07T06:17:32.101Z,0.00
2022-12-07T06:18:32.054Z,0.00
2022-12-07T06:19:32.056Z,0.00
2022-12-07T06:20:32.066Z,0.00
2022-12-07T06:21:32.028Z,0.00
2022-12-07T06:22:32.036Z,0.00
2022-12-07T06:23:32.021Z,0.00
2022-12-07T06:24:31.992Z,0.00
2022-12-07T06:25:31.996Z,0.00
2022-12-07T06:26:32.009Z,0.00
2022-12-07T06:27:31.951Z,0.00
2022-12-07T06:28:31.949Z,0.00
2022-12-07T06:29:31.964Z,0.00
2022-12-07T06:30:31.927Z,0.00
2022-12-07T06:31:32.015Z,0.00
2022-12-07T06:32:31.886Z,0.00
2022-12-07T06:33:31.887Z,0.00
2022-12-07T06:34:31.906Z,0.00
2022-12-07T06:35:31.867Z,0.00
2022-12-07T06:36:31.863Z,0.00
2022-12-07T06:37:31.874Z,0.00
2022-12-07T06:38:31.827Z,0.00
2022-12-07T06:39:31.830Z,0.00
2022-12-07T06:40:31.839Z,0.00
2022-12-07T06:41:31.809Z,0.00
2022-12-07T06:42:31.794Z,0.00
2022-12-07T06:43:31.804Z,0.00
2022-12-07T06:44:31.762Z,0.00
2022-12-07T06:45:31.814Z,0.00
2022-12-07T06:46:31.786Z,0.00
2022-12-07T06:47:40.611Z,0.00
2022-12-07T06:48:31.738Z,0.00
2022-12-07T06:49:31.744Z,0.00
2022-12-07T06:50:31.702Z,0.00
2022-12-07T06:51:31.708Z,0.00
2022-12-07T06:52:31.662Z,0.00
2022-12-07T06:53:31.661Z,0.00
2022-12-07T06:54:31.676Z,0.00
2022-12-07T06:55:31.632Z,0.00
2022-12-07T06:56:31.646Z,0.00
2022-12-07T06:57:31.647Z,0.00
2022-12-07T06:58:31.621Z,0.00
2022-12-07T06:59:31.618Z,0.00
2022-12-07T07:00:31.611Z,0.00
2022-12-07T07:01:31.769Z,0.00
2022-12-07T07:02:31.618Z,0.00
2022-12-07T07:03:31.588Z,0.00
2022-12-07T07:04:31.594Z,0.00
2022-12-07T07:05:31.599Z,0.00
2022-12-07T07:06:31.499Z,0.00
2022-12-07T07:07:31.487Z,0.00
2022-12-07T07:08:31.570Z,0.00
2022-12-07T07:09:31.573Z,0.00
2022-12-07T07:10:31.529Z,0.00
2022-12-07T07:11:31.576Z,0.00
2022-12-07T07:12:31.445Z,0.00
2022-12-07T07:13:31.494Z,0.00
2022-12-07T07:14:31.458Z,0.00
2022-12-07T07:15:31.429Z,0.00
2022-12-07T07:16:31.507Z,0.00
2022-12-07T07:17:31.480Z,0.00
2022-12-07T07:18:31.433Z,0.00
2022-12-07T07:19:31.389Z,0.00
2022-12-07T07:20:31.423Z,0.00
2022-12-07T07:21:31.369Z,0.00
2022-12-07T07:22:31.373Z,0.00
2022-12-07T07:23:31.388Z,0.00
2022-12-07T07:24:31.389Z,0.00
2022-12-07T07:25:31.298Z,0.00
2022-12-07T07:26:31.299Z,0.00
2022-12-07T07:27:31.301Z,0.00
2022-12-07T07:28:31.313Z,0.00
2022-12-07T07:29:31.375Z,0.00
2022-12-07T07:30:31.363Z,0.00
2022-12-07T07:31:31.239Z,0.00
2022-12-07T07:32:31.237Z,0.00
2022-12-07T07:33:31.302Z,0.00
2022-12-07T07:34:31.245Z,0.00
2022-12-07T07:35:31.263Z,0.00
2022-12-07T07:36:31.167Z,0.00
2022-12-07T07:37:31.165Z,0.00
2022-12-07T07:38:31.169Z,0.00
2022-12-07T07:39:31.183Z,0.00
2022-12-07T07:40:31.189Z,0.00
2022-12-07T07:41:31.188Z,0.00
2022-12-07T07:42:31.119Z,0.00
2022-12-07T07:43:31.112Z,0.00
2022-12-07T07:44:35.111Z,0.00
2022-12-07T07:45:31.121Z,0.00
2022-12-07T07:46:31.153Z,0.00
2022-12-07T07:47:31.184Z,0.00
2022-12-07T07:48:31.092Z,0.00
2022-12-07T07:49:31.068Z,0.00
2022-12-07T07:50:31.059Z,0.00
2022-12-07T07:51:31.060Z,0.00
2022-12-07T07:52:31.063Z,0.00
2022-12-07T07:53:31.060Z,0.00
2022-12-07T07:54:31.086Z,0.00
2022-12-07T07:55:30.988Z,0.00
2022-12-07T07:56:30.994Z,0.00
2022-12-07T07:57:30.991Z,0.00
2022-12-07T07:58:30.927Z,0.00
2022-12-07T07:59:30.932Z,0.00
2022-12-07T08:00:30.927Z,0.00
2022-12-07T08:01:30.986Z,0.00
2022-12-07T08:02:30.917Z,0.00
2022-12-07T08:03:30.928Z,0.00
2022-12-07T08:04:30.939Z,1.00
2022-12-07T08:05:30.899Z,0.00
2022-12-07T08:06:32.590Z,0.00
2022-12-07T08:07:30.906Z,0.00
2022-12-07T08:08:30.974Z,0.00
2022-12-07T08:09:30.805Z,1.00
2022-12-07T08:10:30.772Z,1.00
2022-12-07T08:11:30.807Z,1.00
2022-12-07T08:12:30.746Z,1.00
2022-12-07T08:13:31.783Z,1.00
2022-12-07T08:14:30.723Z,1.00
2022-12-07T08:15:30.725Z,1.00
2022-12-07T08:16:30.865Z,1.00
2022-12-07T08:17:30.718Z,2.00
2022-12-07T08:18:30.791Z,2.00
2022-12-07T08:19:30.737Z,2.00
2022-12-07T08:20:30.737Z,0.00
2022-12-07T08:21:30.743Z,0.00
2022-12-07T08:22:30.787Z,0.00
2022-12-07T08:23:37.510Z,0.00
2022-12-07T08:24:30.658Z,2.00
2022-12-07T08:25:30.630Z,2.00
2022-12-07T08:26:30.613Z,2.00
2022-12-07T08:27:30.578Z,1.00
2022-12-07T08:28:30.587Z,1.00
2022-12-07T08:29:30.593Z,1.00
2022-12-07T08:30:30.606Z,1.00
2022-12-07T08:31:30.609Z,1.00
2022-12-07T08:32:30.591Z,3.00
2022-12-07T08:33:30.519Z,3.00
2022-12-07T08:34:30.529Z,4.00
2022-12-07T08:35:30.572Z,2.00
2022-12-07T08:36:30.513Z,2.00
2022-12-07T08:37:30.478Z,3.00
2022-12-07T08:38:32.166Z,2.00
2022-12-07T08:39:32.026Z,2.00
2022-12-07T08:40:30.502Z,6.00
2022-12-07T08:41:30.503Z,8.00
2022-12-07T08:42:30.476Z,6.00
2022-12-07T08:43:30.424Z,8.00
2022-12-07T08:44:30.419Z,8.00
2022-12-07T08:45:30.460Z,7.00
2022-12-07T08:46:30.426Z,5.00
2022-12-07T08:47:30.444Z,5.00
2022-12-07T08:48:30.382Z,6.00
2022-12-07T08:49:30.361Z,3.00
2022-12-07T08:50:30.350Z,6.00
2022-12-07T08:51:30.980Z,7.00
2022-12-07T08:52:30.363Z,8.00
2022-12-07T08:53:30.326Z,11.00
2022-12-07T08:54:30.320Z,12.00
2022-12-07T08:55:30.288Z,11.00
2022-12-07T08:56:30.293Z,13.00
2022-12-07T08:57:30.312Z,14.00
2022-12-07T08:58:30.248Z,11.00
2022-12-07T08:59:30.323Z,9.00
2022-12-07T09:00:30.223Z,7.00
2022-12-07T09:01:30.297Z,8.00
2022-12-07T09:02:30.233Z,8.00
2022-12-07T09:03:30.180Z,11.00
2022-12-07T09:04:30.255Z,13.00
2022-12-07T09:05:30.303Z,13.00
2022-12-07T09:06:30.435Z,14.00
2022-12-07T09:07:30.219Z,12.00
2022-12-07T09:08:30.169Z,11.00
2022-12-07T09:09:30.223Z,11.00
2022-12-07T09:10:30.139Z,10.00
2022-12-07T09:11:30.338Z,15.00
2022-12-07T09:12:30.095Z,16.00
2022-12-07T09:13:30.118Z,14.00
2022-12-07T09:14:30.104Z,13.00
2022-12-07T09:15:30.057Z,14.00
2022-12-07T09:16:30.213Z,13.00
2022-12-07T09:17:30.323Z,12.00
2022-12-07T09:18:30.029Z,9.00
2022-12-07T09:19:30.043Z,8.00
2022-12-07T09:20:30.092Z,11.00
2022-12-07T09:21:30.010Z,9.00
2022-12-07T09:22:30.006Z,10.00
2022-12-07T09:23:30.020Z,10.00
2022-12-07T09:24:29.963Z,9.00
2022-12-07T09:25:30.052Z,8.00
2022-12-07T09:26:29.973Z,10.00
2022-12-07T09:27:29.986Z,9.00
2022-12-07T09:28:29.991Z,12.00
2022-12-07T09:29:31.941Z,13.00
2022-12-07T09:30:30.008Z,12.00
2022-12-07T09:31:30.023Z,16.00
2022-12-07T09:32:29.961Z,17.00
2022-12-07T09:33:29.903Z,22.00
2022-12-07T09:34:29.880Z,27.00
2022-12-07T09:35:29.868Z,23.00
2022-12-07T09:36:29.977Z,23.00
2022-12-07T09:37:29.882Z,19.00
2022-12-07T09:38:29.838Z,16.00
2022-12-07T09:39:29.863Z,18.00
2022-12-07T09:40:29.794Z,18.00
2022-12-07T09:41:29.804Z,18.00
2022-12-07T09:42:29.880Z,22.00
2022-12-07T09:43:29.821Z,23.00
2022-12-07T09:44:29.774Z,25.00
2022-12-07T09:45:29.783Z,25.00
2022-12-07T09:46:29.851Z,29.00
2022-12-07T09:47:29.875Z,29.00
2022-12-07T09:48:29.753Z,26.00
2022-12-07T09:49:29.704Z,31.00
2022-12-07T09:50:29.711Z,33.00
2022-12-07T09:51:29.719Z,34.00
2022-12-07T09:52:34.261Z,35.00
2022-12-07T09:53:29.757Z,38.00
2022-12-07T09:54:29.748Z,44.00
2022-12-07T09:55:29.671Z,52.00
2022-12-07T09:56:29.657Z,59.00
2022-12-07T09:57:29.674Z,72.00
2022-12-07T09:58:29.673Z,69.00
2022-12-07T09:59:35.137Z,67.00
2022-12-07T10:00:29.712Z,63.00
2022-12-07T10:01:29.638Z,67.00
2022-12-07T10:02:29.598Z,74.00
2022-12-07T10:03:29.543Z,78.00
2022-12-07T10:04:29.794Z,74.00
2022-12-07T10:05:29.665Z,71.00
2022-12-07T10:06:29.650Z,69.00
2022-12-07T10:07:29.516Z,49.00
2022-12-07T10:08:29.506Z,70.00
2022-12-07T10:09:29.466Z,218.00
2022-12-07T10:10:31.649Z,351.00
2022-12-07T10:11:29.483Z,104.00
2022-12-07T10:12:29.544Z,90.00
2022-12-07T10:13:29.659Z,86.00
2022-12-07T10:14:44.386Z,78.00
2022-12-07T10:15:29.418Z,76.00
2022-12-07T10:16:29.488Z,59.00
2022-12-07T10:17:29.442Z,66.00
2022-12-07T10:18:29.460Z,290.00
2022-12-07T10:19:29.429Z,111.00
2022-12-07T10:20:29.493Z,85.00
2022-12-07T10:21:29.339Z,92.00
2022-12-07T10:22:32.075Z,64.00
2022-12-07T10:23:29.871Z,102.00
2022-12-07T10:24:29.369Z,353.00
2022-12-07T10:25:29.428Z,190.00
2022-12-07T10:26:29.285Z,107.00
2022-12-07T10:27:29.346Z,97.00
2022-12-07T10:28:29.291Z,267.00
2022-12-07T10:29:29.296Z,165.00
2022-12-07T10:30:29.367Z,91.00
2022-12-07T10:31:29.403Z,137.00
2022-12-07T10:32:30.040Z,326.00
2022-12-07T10:33:29.283Z,298.00
2022-12-07T10:34:29.228Z,265.00
2022-12-07T10:35:29.398Z,93.00
2022-12-07T10:36:29.245Z,325.00
2022-12-07T10:37:29.216Z,255.00
2022-12-07T10:38:29.158Z,184.00
2022-12-07T10:39:29.263Z,64.00
2022-12-07T10:40:29.226Z,72.00
2022-12-07T10:41:29.475Z,183.00
2022-12-07T10:42:29.241Z,175.00
2022-12-07T10:43:29.143Z,81.00
2022-12-07T10:44:29.160Z,432.00
2022-12-07T10:45:29.276Z,99.00
2022-12-07T10:46:29.236Z,119.00
2022-12-07T10:47:29.193Z,105.00
2022-12-07T10:48:29.082Z,85.00
2022-12-07T10:49:29.087Z,72.00
2022-12-07T10:50:29.034Z,111.00
2022-12-07T10:51:29.105Z,166.00
2022-12-07T10:52:29.125Z,137.00
2022-12-07T10:53:29.422Z,281.00
2022-12-07T10:54:29.027Z,108.00
2022-12-07T10:55:29.032Z,135.00
2022-12-07T10:56:29.139Z,72.00
2022-12-07T10:57:29.037Z,159.00
2022-12-07T10:58:29.059Z,139.00
2022-12-07T10:59:29.461Z,162.00
2022-12-07T11:00:29.014Z,103.00
2022-12-07T11:01:29.041Z,322.00
2022-12-07T11:02:29.037Z,359.00
2022-12-07T11:03:28.944Z,167.00
2022-12-07T11:04:29.024Z,144.00
2022-12-07T11:05:28.995Z,134.00
2022-12-07T11:06:28.895Z,123.00
2022-12-07T11:07:29.014Z,120.00
2022-12-07T11:08:28.945Z,105.00
2022-12-07T11:09:59.537Z,117.00
2022-12-07T11:10:28.934Z,113.00
2022-12-07T11:11:29.546Z,111.00
2022-12-07T11:12:28.897Z,97.00
2022-12-07T11:13:29.305Z,84.00
2022-12-07T11:14:28.808Z,76.00
2022-12-07T11:15:28.961Z,71.00
2022-12-07T11:16:31.693Z,61.00
2022-12-07T11:17:28.872Z,64.00
2022-12-07T11:18:28.731Z,71.00
2022-12-07T11:19:28.850Z,68.00
2022-12-07T11:20:28.743Z,52.00
2022-12-07T11:21:28.773Z,50.00
2022-12-07T11:22:28.715Z,55.00
2022-12-07T11:23:28.764Z,47.00
2022-12-07T11:24:28.722Z,54.00
2022-12-07T11:37:45.270Z,57.00
2022-12-07T11:37:51.032Z,38.00
2022-12-07T11:38:50.986Z,85.00
2022-12-07T11:39:50.942Z,97.00
2022-12-07T11:40:50.992Z,118.00
2022-12-07T11:41:50.967Z,125.00
2022-12-07T11:42:50.982Z,131.00
2022-12-07T11:43:50.983Z,93.00
2022-12-07T11:44:50.926Z,146.00
2022-12-07T11:45:50.922Z,170.00
2022-12-07T11:46:50.966Z,179.00
2022-12-07T11:47:50.843Z,212.00
2022-12-07T11:48:50.953Z,173.00
2022-12-07T11:49:50.914Z,158.00
2022-12-07T11:50:50.819Z,109.00
2022-12-07T11:51:50.826Z,293.00
2022-12-07T11:52:50.842Z,217.00
2022-12-07T11:53:50.786Z,160.00
2022-12-07T11:54:50.784Z,193.00
2022-12-07T11:55:50.792Z,224.00
2022-12-07T11:56:50.765Z,201.00
2022-12-07T11:57:50.798Z,99.00
2022-12-07T11:58:50.918Z,220.00
2022-12-07T11:59:50.710Z,127.00
2022-12-07T12:00:50.722Z,201.00
2022-12-07T12:01:50.767Z,482.00
2022-12-07T12:02:50.812Z,947.00
2022-12-07T12:03:53.319Z,735.00
2022-12-07T12:04:50.743Z,197.00
2022-12-07T12:05:50.650Z,183.00
2022-12-07T12:06:50.925Z,158.00
2022-12-07T12:09:53.444Z,291.00
2022-12-07T12:10:50.694Z,196.00
2022-12-07T12:11:51.738Z,173.00
2022-12-07T12:14:50.646Z,121.00
2022-12-07T12:15:50.546Z,154.00
2022-12-07T12:16:50.666Z,124.00
2022-12-07T12:17:50.566Z,140.00
2022-12-07T12:18:51.379Z,125.00
2022-12-07T12:19:50.785Z,145.00
2022-12-07T12:20:50.992Z,203.00
2022-12-07T12:21:53.119Z,252.00
2022-12-07T12:23:16.375Z,156.00
2022-12-07T12:24:09.622Z,127.00
2022-12-07T12:24:50.507Z,126.00
2022-12-07T12:25:54.636Z,140.00
2022-12-07T12:26:51.438Z,149.00
2022-12-07T12:27:50.494Z,179.00
2022-12-07T12:28:50.737Z,204.00
2022-12-07T12:29:50.442Z,203.00
2022-12-07T12:30:50.463Z,151.00
2022-12-07T12:31:50.491Z,95.00
2022-12-07T12:32:50.359Z,75.00
2022-12-07T12:33:50.429Z,64.00
2022-12-07T12:34:51.089Z,52.00
2022-12-07T12:35:50.444Z,41.00
2022-12-07T12:36:50.463Z,35.00
2022-12-07T12:37:50.354Z,24.00
2022-12-07T12:38:50.388Z,21.00
2022-12-07T12:39:50.370Z,16.00
2022-12-07T12:40:51.356Z,13.00
2022-12-07T12:41:50.390Z,10.00
2022-12-07T12:42:50.381Z,16.00
2022-12-07T12:43:50.541Z,21.00
2022-12-07T12:44:50.248Z,29.00
2022-12-07T12:45:50.357Z,31.00
2022-12-07T12:46:50.804Z,22.00
2022-12-07T12:47:50.215Z,24.00
2022-12-07T12:48:50.331Z,33.00
2022-12-07T12:49:50.233Z,41.00
2022-12-07T12:50:50.231Z,46.00
2022-12-07T12:51:50.187Z,49.00
2022-12-07T12:52:51.723Z,53.00
2022-12-07T12:53:50.368Z,43.00
2022-12-07T12:54:50.169Z,38.00
2022-12-07T12:55:50.168Z,56.00
2022-12-07T12:56:50.174Z,76.00
2022-12-07T12:57:55.866Z,90.00
2022-12-07T12:58:50.172Z,63.00
2022-12-07T12:59:50.192Z,71.00
2022-12-07T13:00:50.281Z,136.00
2022-12-07T13:01:50.147Z,185.00
2022-12-07T13:02:50.191Z,177.00
2022-12-07T13:03:50.043Z,165.00
2022-12-07T13:04:50.125Z,173.00
2022-12-07T13:05:50.024Z,164.00
2022-12-07T13:06:50.058Z,140.00
2022-12-07T13:07:50.056Z,194.00
2022-12-07T13:08:50.044Z,125.00
2022-12-07T13:09:50.053Z,144.00
2022-12-07T13:10:50.065Z,199.00
2022-12-07T13:11:50.007Z,173.00
2022-12-07T13:12:50.074Z,177.00
2022-12-07T13:13:49.928Z,180.00
2022-12-07T13:14:49.985Z,193.00
2022-12-07T13:15:49.978Z,175.00
2022-12-07T13:16:50.115Z,179.00
2022-12-07T13:17:49.901Z,156.00
2022-12-07T13:18:49.933Z,123.00
2022-12-07T13:19:49.869Z,172.00
2022-12-07T13:20:49.870Z,647.00
2022-12-07T13:21:49.887Z,273.00